Time;durP1;ratioP1;P1;durP2;ratioP2;P2;SDS_P1;SDS_P2;PMS_P1;PMS_P2;Temp;Humidity;BMP_temperature;BMP_pressure;BME280_temperature;BME280_humidity;BME280_pressure;Samples;Min_cycle;Max_cycle;Signal;HPM_P1;HPM_P2
2022/07/12 00:01:07;;;;;;;2.70;2.50;;;14.40;99.90;;;;;;5048306;28;20033;-71
2022/07/12 00:03:33;;;;;;;2.80;2.60;;;14.40;99.90;;;;;;5048769;28;20063;-71
2022/07/12 00:05:59;;;;;;;2.60;2.40;;;14.40;99.90;;;;;;5048580;28;20055;-71
2022/07/12 00:08:25;;;;;;;2.97;2.72;;;14.30;99.90;;;;;;5048912;28;20041;-71
2022/07/12 00:10:51;;;;;;;3.00;2.70;;;14.30;99.90;;;;;;5048830;28;20060;-71
2022/07/12 00:13:17;;;;;;;2.95;2.75;;;14.30;99.90;;;;;;5049503;28;20082;-71
2022/07/12 00:15:43;;;;;;;2.88;2.67;;;14.20;99.90;;;;;;5050129;28;20480;-71
2022/07/12 00:18:10;;;;;;;2.90;2.70;;;14.20;99.90;;;;;;5046322;28;20095;-71
2022/07/12 00:20:35;;;;;;;2.38;2.17;;;14.10;99.90;;;;;;5010187;28;20120;-71
2022/07/12 00:23:01;;;;;;;3.08;2.88;;;14.10;99.90;;;;;;5045845;28;20782;-71
2022/07/12 00:25:27;;;;;;;3.60;2.92;;;14.10;99.90;;;;;;5042940;28;20041;-71
2022/07/12 00:27:52;;;;;;;2.40;2.20;;;14.10;99.90;;;;;;5044423;28;20132;-71
2022/07/12 00:30:18;;;;;;;4.00;2.83;;;14.10;99.90;;;;;;5025757;28;20049;-71
2022/07/12 00:32:44;;;;;;;2.60;2.40;;;14.10;99.90;;;;;;5046316;28;20449;-70
2022/07/12 00:35:10;;;;;;;2.70;2.50;;;14.00;99.90;;;;;;5043956;28;20049;-71
2022/07/12 00:37:35;;;;;;;2.05;1.95;;;14.00;99.90;;;;;;5044415;28;20392;-71
2022/07/12 00:40:03;;;;;;;2.50;2.30;;;13.90;99.90;;;;;;5041953;28;20033;-71
2022/07/12 00:42:29;;;;;;;3.15;2.65;;;13.90;99.90;;;;;;5045546;28;20037;-71
2022/07/12 00:44:55;;;;;;;2.78;2.58;;;14.00;99.90;;;;;;5040597;28;21497;-71
2022/07/12 00:47:37;;;;;;;2.47;2.30;;;13.90;99.90;;;;;;5044061;28;20045;-71
2022/07/12 00:50:19;;;;;;;2.63;2.42;;;13.90;99.90;;;;;;5043260;28;20049;-70
2022/07/12 00:52:46;;;;;;;2.65;2.45;;;13.80;99.90;;;;;;5042450;28;20076;-70
2022/07/12 00:55:12;;;;;;;2.88;2.58;;;13.70;99.90;;;;;;5042632;28;20041;-70
2022/07/12 00:57:39;;;;;;;2.42;2.28;;;13.70;99.90;;;;;;5045059;28;20098;-70
2022/07/12 01:00:08;;;;;;;3.38;2.40;;;13.70;99.90;;;;;;5044411;28;20188;-69
2022/07/12 01:02:35;;;;;;;2.60;2.40;;;13.70;99.90;;;;;;5045324;28;20082;-69
2022/07/12 01:05:03;;;;;;;2.60;2.40;;;13.60;99.90;;;;;;5045927;28;20041;-70
2022/07/12 01:07:29;;;;;;;3.28;2.65;;;13.60;99.90;;;;;;5048725;28;20064;-70
2022/07/12 01:09:55;;;;;;;2.70;2.50;;;13.60;99.90;;;;;;5047125;28;20045;-70
2022/07/12 01:12:22;;;;;;;2.60;2.40;;;13.60;99.90;;;;;;5049739;28;20037;-69
2022/07/12 01:14:51;;;;;;;2.90;2.40;;;13.60;99.90;;;;;;5049968;28;20527;-69
2022/07/12 01:17:21;;;;;;;2.90;2.63;;;13.60;99.90;;;;;;5050005;28;20878;-70
2022/07/12 01:19:52;;;;;;;2.75;2.55;;;13.50;99.90;;;;;;5048406;28;20106;-69
2022/07/12 01:22:18;;;;;;;2.50;2.30;;;13.40;99.90;;;;;;5027880;28;20120;-69
2022/07/12 01:24:45;;;;;;;2.45;2.25;;;13.30;99.90;;;;;;5048844;28;20045;-71
2022/07/12 01:27:11;;;;;;;2.35;2.25;;;13.40;99.90;;;;;;5049189;28;20054;-71
2022/07/12 01:29:38;;;;;;;2.65;2.45;;;13.30;99.90;;;;;;5048171;28;20503;-71
2022/07/12 01:32:26;;;;;;;2.60;2.40;;;13.30;99.90;;;;;;5045956;28;20048;-71
2022/07/12 01:34:59;;;;;;;4.20;2.67;;;13.30;99.90;;;;;;5048005;28;20064;-70
2022/07/12 01:37:31;;;;;;;2.88;2.60;;;13.30;99.90;;;;;;5045800;28;20052;-70
2022/07/12 01:39:58;;;;;;;2.40;2.20;;;13.30;99.90;;;;;;5043912;28;20045;-71
2022/07/12 01:42:25;;;;;;;2.40;2.13;;;13.30;99.90;;;;;;5046776;28;20040;-70
2022/07/12 01:44:52;;;;;;;3.15;2.20;;;13.30;99.90;;;;;;5045896;28;20440;-70
2022/07/12 01:47:22;;;;;;;3.78;2.08;;;13.20;99.90;;;;;;5047288;28;20060;-70
2022/07/12 01:52:27;;;;;;;2.38;2.17;;;13.10;99.90;;;;;;5065537;22;20084;-47
2022/07/12 01:54:54;;;;;;;2.28;2.00;;;13.10;99.90;;;;;;5047773;28;20112;-49
2022/07/12 01:57:20;;;;;;;2.05;1.90;;;13.00;99.90;;;;;;5040863;28;20550;-46
2022/07/12 01:59:46;;;;;;;2.22;2.03;;;13.00;99.90;;;;;;5041480;28;20139;-47
2022/07/12 02:02:12;;;;;;;3.38;2.42;;;13.00;99.90;;;;;;5044255;28;20549;-49
2022/07/12 02:04:38;;;;;;;2.60;2.38;;;13.00;99.90;;;;;;5042327;28;20041;-48
2022/07/12 02:07:04;;;;;;;3.28;2.80;;;13.00;99.90;;;;;;5041536;28;20044;-47
2022/07/12 02:09:31;;;;;;;3.10;2.80;;;13.00;99.90;;;;;;5043067;28;20470;-48
2022/07/12 02:11:57;;;;;;;3.03;2.72;;;13.00;99.90;;;;;;5047281;28;20481;-51
2022/07/12 02:14:23;;;;;;;2.42;2.22;;;13.00;99.90;;;;;;5047928;28;20037;-48
2022/07/12 02:16:49;;;;;;;2.60;2.40;;;13.00;99.90;;;;;;5048294;28;20360;-47
2022/07/12 02:19:14;;;;;;;2.38;2.22;;;13.00;99.90;;;;;;5046451;28;20399;-49
2022/07/12 02:21:40;;;;;;;2.70;2.50;;;12.90;99.90;;;;;;5048604;28;20356;-46
2022/07/12 02:24:06;;;;;;;2.72;2.45;;;12.90;99.90;;;;;;5048680;28;20049;-47
2022/07/12 02:26:34;;;;;;;2.58;2.38;;;12.90;99.90;;;;;;5045715;28;20600;-48
2022/07/12 02:29:01;;;;;;;2.60;2.40;;;12.90;99.90;;;;;;5046909;28;20071;-45
2022/07/12 02:31:27;;;;;;;2.63;2.42;;;12.90;99.90;;;;;;5049678;28;20036;-48
2022/07/12 02:33:52;;;;;;;3.28;2.67;;;12.90;99.90;;;;;;5047415;28;20037;-47
2022/07/12 02:36:18;;;;;;;2.70;2.50;;;12.90;99.90;;;;;;5046023;28;20101;-46
2022/07/12 02:38:43;;;;;;;2.83;2.63;;;12.90;99.90;;;;;;5046304;28;20098;-49
2022/07/12 02:41:09;;;;;;;2.95;2.47;;;12.80;99.90;;;;;;5044671;28;20055;-46
2022/07/12 02:43:35;;;;;;;2.90;2.53;;;12.80;99.90;;;;;;5047687;28;20049;-47
2022/07/12 02:46:09;;;;;;;3.45;2.80;;;12.70;99.90;;;;;;5044589;28;20107;-47
2022/07/12 02:48:35;;;;;;;3.25;2.95;;;12.70;99.90;;;;;;5045368;28;20052;-48
2022/07/12 02:51:02;;;;;;;3.20;2.75;;;12.80;99.90;;;;;;5046477;28;20064;-49
2022/07/12 02:53:28;;;;;;;2.55;2.35;;;12.70;99.90;;;;;;5044463;28;20056;-46
2022/07/12 02:55:53;;;;;;;3.47;2.38;;;12.70;99.90;;;;;;5044582;28;20095;-45
2022/07/12 02:58:19;;;;;;;4.72;2.63;;;12.70;99.90;;;;;;5046632;28;20120;-46
2022/07/12 03:00:44;;;;;;;3.53;3.00;;;12.60;99.90;;;;;;5046671;28;20349;-46
2022/07/12 03:03:14;;;;;;;2.60;2.40;;;12.60;99.90;;;;;;5046523;28;20041;-46
2022/07/12 03:05:40;;;;;;;3.80;2.17;;;12.60;99.90;;;;;;5046833;28;20033;-47
2022/07/12 03:08:07;;;;;;;2.55;2.35;;;12.50;99.90;;;;;;5046780;28;20045;-46
2022/07/12 03:10:33;;;;;;;2.85;2.22;;;12.50;99.90;;;;;;5043240;28;20114;-46
2022/07/12 03:12:59;;;;;;;2.50;2.30;;;12.40;99.90;;;;;;5045452;28;20047;-47
2022/07/12 03:15:25;;;;;;;2.92;2.20;;;12.60;99.90;;;;;;5044413;28;20036;-46
2022/07/12 03:17:50;;;;;;;2.30;2.20;;;12.50;99.90;;;;;;5045581;28;20033;-48
2022/07/12 03:20:16;;;;;;;2.10;2.00;;;12.50;99.90;;;;;;5047255;28;20040;-47
2022/07/12 03:22:43;;;;;;;2.42;2.10;;;12.50;99.90;;;;;;5046593;28;20044;-46
2022/07/12 03:25:09;;;;;;;2.60;2.40;;;12.50;99.90;;;;;;5042371;28;20495;-46
2022/07/12 03:27:35;;;;;;;2.10;1.90;;;12.50;99.90;;;;;;5044096;28;20041;-47
2022/07/12 03:30:01;;;;;;;3.10;1.98;;;12.50;99.90;;;;;;5046729;28;20439;-46
2022/07/12 03:32:26;;;;;;;2.28;2.08;;;12.50;99.90;;;;;;5044649;28;20037;-45
2022/07/12 03:34:52;;;;;;;2.20;2.03;;;12.50;99.90;;;;;;5044797;28;20073;-46
2022/07/12 03:37:18;;;;;;;2.40;2.20;;;12.40;99.90;;;;;;5043733;28;20533;-46
2022/07/12 03:39:44;;;;;;;2.13;2.03;;;12.50;99.90;;;;;;5046435;28;20041;-46
2022/07/12 03:42:11;;;;;;;1.80;1.70;;;12.50;99.90;;;;;;5046599;28;20045;-45
2022/07/12 03:44:36;;;;;;;2.13;2.00;;;12.40;99.90;;;;;;5046901;28;20319;-44
2022/07/12 03:47:02;;;;;;;1.83;1.73;;;12.40;99.90;;;;;;5046094;28;20649;-47
2022/07/12 03:49:28;;;;;;;4.18;2.33;;;12.50;99.90;;;;;;5045259;28;20044;-47
2022/07/12 03:51:53;;;;;;;6.45;1.83;;;12.40;99.90;;;;;;5042943;28;20492;-47
2022/07/12 03:54:19;;;;;;;57.38;2.92;;;12.40;99.90;;;;;;5047308;28;20415;-47
2022/07/12 03:59:29;;;;;;;9.13;2.05;;;12.40;99.90;;;;;;5046438;28;20601;-47
2022/07/12 04:01:54;;;;;;;14.07;2.45;;;12.40;99.90;;;;;;5046937;28;20127;-47
2022/07/12 04:04:20;;;;;;;9.98;3.03;;;12.40;99.90;;;;;;5047527;28;20436;-47
2022/07/12 04:06:46;;;;;;;5.93;2.60;;;12.50;99.90;;;;;;5046453;28;20556;-46
2022/07/12 04:09:12;;;;;;;2.80;2.60;;;12.60;99.90;;;;;;5045285;28;20118;-47
2022/07/12 04:11:37;;;;;;;2.17;1.98;;;12.70;99.90;;;;;;5045602;28;20402;-46
2022/07/12 04:14:03;;;;;;;2.90;2.33;;;12.80;99.90;;;;;;5046563;28;20037;-47
2022/07/12 04:16:29;;;;;;;5.30;2.72;;;12.90;99.90;;;;;;5045641;28;20040;-45
2022/07/12 04:18:55;;;;;;;3.15;2.50;;;13.00;99.90;;;;;;5042811;28;20053;-45
2022/07/12 04:21:21;;;;;;;24.83;2.90;;;13.10;99.90;;;;;;5044809;28;20037;-47
2022/07/12 04:23:47;;;;;;;28.65;3.08;;;13.20;99.90;;;;;;5049331;28;20562;-46
2022/07/12 04:26:13;;;;;;;32.35;3.30;;;13.20;99.90;;;;;;5047555;28;20119;-47
2022/07/12 04:28:38;;;;;;;29.60;3.20;;;13.30;99.90;;;;;;5046185;28;20116;-47
2022/07/12 04:31:04;;;;;;;15.40;2.60;;;13.50;99.90;;;;;;5041121;28;20133;-46
2022/07/12 04:33:30;;;;;;;18.95;2.58;;;13.60;99.90;;;;;;5050909;28;20407;-46
2022/07/12 04:35:55;;;;;;;11.68;2.60;;;13.80;99.90;;;;;;5050399;28;20518;-45
2022/07/12 04:38:21;;;;;;;8.82;2.17;;;13.90;99.90;;;;;;5050216;28;20044;-46
2022/07/12 04:40:46;;;;;;;2.63;2.10;;;14.00;99.90;;;;;;5046949;28;20033;-46
2022/07/12 04:43:12;;;;;;;2.17;1.90;;;14.20;99.90;;;;;;5042535;28;20393;-46
2022/07/12 04:45:38;;;;;;;2.25;2.15;;;14.40;99.90;;;;;;5044621;28;20041;-47
2022/07/12 04:48:03;;;;;;;2.15;1.88;;;14.60;99.90;;;;;;5048415;28;20553;-46
2022/07/12 04:50:29;;;;;;;3.60;1.92;;;15.00;99.90;;;;;;5047160;28;20037;-46
2022/07/12 04:52:54;;;;;;;4.85;2.33;;;15.30;99.90;;;;;;5047647;28;20107;-46
2022/07/12 04:55:20;;;;;;;4.72;2.20;;;15.70;99.90;;;;;;5048954;28;20053;-47
2022/07/12 04:57:45;;;;;;;3.45;2.67;;;16.00;99.90;;;;;;5045895;28;20041;-46
2022/07/12 05:00:11;;;;;;;3.30;3.03;;;16.30;99.90;;;;;;5048066;28;20083;-46
2022/07/12 05:02:37;;;;;;;5.32;3.15;;;17.00;99.90;;;;;;5049278;28;20128;-47
2022/07/12 05:05:03;;;;;;;4.35;3.47;;;17.90;99.90;;;;;;5049182;28;20556;-49
2022/07/12 05:07:29;;;;;;;4.15;3.67;;;18.50;99.90;;;;;;5048240;28;20522;-47
2022/07/12 05:09:54;;;;;;;3.97;3.45;;;19.40;99.90;;;;;;5039384;28;20038;-47
2022/07/12 05:12:20;;;;;;;4.10;3.80;;;20.20;99.90;;;;;;5041902;28;20041;-47
2022/07/12 05:14:45;;;;;;;3.65;3.08;;;20.90;99.90;;;;;;5034150;28;20137;-47
2022/07/12 05:17:11;;;;;;;4.40;4.00;;;21.50;99.90;;;;;;5045495;28;20114;-47
2022/07/12 05:19:37;;;;;;;4.63;4.30;;;22.50;99.90;;;;;;5048892;28;20048;-47
2022/07/12 05:22:03;;;;;;;4.90;4.38;;;22.90;99.90;;;;;;5049297;28;20372;-51
2022/07/12 05:24:29;;;;;;;5.40;4.90;;;23.40;99.90;;;;;;5037533;28;20099;-49
2022/07/12 05:26:55;;;;;;;4.55;4.15;;;23.90;99.90;;;;;;5047915;28;20094;-46
2022/07/12 05:29:20;;;;;;;3.90;3.60;;;23.80;99.90;;;;;;5050339;28;20174;-52
2022/07/12 05:31:46;;;;;;;4.18;3.83;;;23.90;99.90;;;;;;5047456;28;20094;-47
2022/07/12 05:34:12;;;;;;;3.75;3.45;;;24.80;99.90;;;;;;5049544;28;20087;-47
2022/07/12 05:36:38;;;;;;;3.88;3.58;;;24.80;99.90;;;;;;5049419;28;20103;-46
2022/07/12 05:39:04;;;;;;;4.00;3.70;;;24.50;99.90;;;;;;5050198;28;20040;-47
2022/07/12 05:41:29;;;;;;;3.63;3.33;;;24.80;99.90;;;;;;5048501;28;20044;-49
2022/07/12 05:43:55;;;;;;;4.00;3.70;;;24.40;99.90;;;;;;5041090;28;20150;-48
2022/07/12 05:46:20;;;;;;;4.28;3.95;;;24.50;99.90;;;;;;5051215;28;20072;-47
2022/07/12 05:48:46;;;;;;;4.88;4.20;;;25.20;99.90;;;;;;5051886;28;20048;-48
2022/07/12 05:53:56;;;;;;;5.70;4.70;;;26.20;99.90;;;;;;4999863;28;20053;-47
2022/07/12 05:56:21;;;;;;;5.70;4.93;;;26.60;99.90;;;;;;5014629;28;20107;-48
2022/07/12 05:58:47;;;;;;;6.13;4.97;;;27.10;99.90;;;;;;5014927;28;20049;-48
2022/07/12 06:01:12;;;;;;;4.90;4.50;;;27.10;99.90;;;;;;5014922;28;20034;-47
2022/07/12 06:03:38;;;;;;;5.40;4.90;;;27.20;99.90;;;;;;5014760;28;20046;-47
2022/07/12 06:06:05;;;;;;;4.13;3.63;;;27.40;99.90;;;;;;5014486;28;20042;-48
2022/07/12 06:08:30;;;;;;;4.20;3.80;;;28.30;99.90;;;;;;5007030;28;20069;-47
2022/07/12 06:10:56;;;;;;;4.82;3.88;;;28.30;99.90;;;;;;5012651;28;20476;-46
2022/07/12 06:13:22;;;;;;;3.50;3.20;;;28.50;99.90;;;;;;5010138;28;20042;-45
2022/07/12 06:15:47;;;;;;;3.75;3.45;;;28.80;99.90;;;;;;4994984;28;20038;-45
2022/07/12 06:18:13;;;;;;;4.20;2.90;;;29.30;99.70;;;;;;4998415;28;20034;-45
2022/07/12 06:20:39;;;;;;;3.40;3.20;;;30.10;99.90;;;;;;5014134;28;20516;-45
2022/07/12 06:23:04;;;;;;;3.03;2.83;;;29.70;98.60;;;;;;5006776;28;20065;-47
2022/07/12 06:25:30;;;;;;;2.88;2.70;;;28.90;98.50;;;;;;5008863;28;20053;-46
2022/07/12 06:27:55;;;;;;;2.72;2.50;;;27.40;99.40;;;;;;5009475;28;20464;-46
2022/07/12 06:30:22;;;;;;;4.90;2.80;;;27.20;99.70;;;;;;5001975;28;20408;-44
2022/07/12 06:32:48;;;;;;;2.60;2.40;;;26.40;99.90;;;;;;5003982;28;20038;-46
2022/07/12 06:35:14;;;;;;;2.90;2.70;;;26.00;99.90;;;;;;5006395;28;20041;-45
2022/07/12 06:37:40;;;;;;;4.80;3.00;;;25.50;99.90;;;;;;5009373;28;20443;-45
2022/07/12 06:40:07;;;;;;;3.25;2.95;;;25.00;99.90;;;;;;5007279;28;20121;-46
2022/07/12 06:42:33;;;;;;;3.78;3.47;;;24.70;99.90;;;;;;4996984;28;20447;-45
2022/07/12 06:44:58;;;;;;;3.50;3.03;;;24.40;99.90;;;;;;5006600;28;20105;-46
2022/07/12 06:47:24;;;;;;;6.07;3.30;;;24.10;99.90;;;;;;5011295;28;20112;-48
2022/07/12 06:49:49;;;;;;;9.02;4.20;;;24.10;99.90;;;;;;5001133;28;20141;-46
2022/07/12 06:52:15;;;;;;;4.45;3.50;;;23.90;99.90;;;;;;5035374;28;20175;-44
2022/07/12 06:54:41;;;;;;;3.45;3.13;;;23.70;99.90;;;;;;5041622;28;20696;-46
2022/07/12 06:57:07;;;;;;;3.80;3.45;;;23.50;99.90;;;;;;5047927;28;20118;-44
2022/07/12 06:59:32;;;;;;;11.50;4.43;;;23.60;99.90;;;;;;5037191;28;20175;-48
2022/07/12 07:01:58;;;;;;;3.28;2.97;;;23.70;99.90;;;;;;5041685;28;20080;-44
2022/07/12 07:04:24;;;;;;;3.33;3.13;;;23.50;99.90;;;;;;5049347;28;20044;-44
2022/07/12 07:06:50;;;;;;;3.53;3.05;;;23.80;99.90;;;;;;5052500;28;20037;-48
2022/07/12 07:09:16;;;;;;;4.80;2.92;;;24.00;99.90;;;;;;5052013;28;20117;-47
2022/07/12 07:11:42;;;;;;;8.18;3.83;;;24.40;99.90;;;;;;5051999;28;20041;-48
2022/07/12 07:14:08;;;;;;;5.32;3.55;;;24.60;99.90;;;;;;5049587;28;20044;-46
2022/07/12 07:16:34;;;;;;;4.30;3.13;;;24.40;99.90;;;;;;5051443;28;20045;-49
2022/07/12 07:18:59;;;;;;;3.30;3.00;;;24.90;99.90;;;;;;5047821;28;20036;-46
2022/07/12 07:21:25;;;;;;;3.25;2.90;;;25.10;99.90;;;;;;5049123;28;20484;-49
2022/07/12 07:23:51;;;;;;;3.50;3.30;;;25.20;99.90;;;;;;5050326;28;20045;-48
2022/07/12 07:26:17;;;;;;;3.30;3.00;;;25.60;99.90;;;;;;5033730;28;20041;-46
2022/07/12 07:31:28;;;;;;;3.17;2.88;;;26.80;99.90;;;;;;5046995;28;20119;-46
2022/07/12 07:33:53;;;;;;;5.10;3.80;;;27.50;99.90;;;;;;5051855;28;20041;-46
2022/07/12 07:36:19;;;;;;;3.20;3.00;;;27.30;99.90;;;;;;5047632;28;20677;-46
2022/07/12 07:38:45;;;;;;;3.30;2.78;;;27.60;99.90;;;;;;5052641;28;20037;-48
2022/07/12 07:41:10;;;;;;;3.10;2.90;;;27.70;99.90;;;;;;5051378;28;20095;-47
2022/07/12 07:43:36;;;;;;;3.30;3.00;;;28.00;99.90;;;;;;5037954;28;20081;-46
2022/07/12 07:46:01;;;;;;;2.63;2.42;;;28.10;99.90;;;;;;5032438;28;20037;-47
2022/07/12 07:48:28;;;;;;;2.60;2.40;;;28.20;99.90;;;;;;5031028;28;20056;-49
2022/07/12 07:50:54;;;;;;;2.53;2.43;;;28.10;99.90;;;;;;5046181;28;20083;-47
2022/07/12 07:53:19;;;;;;;2.85;2.65;;;27.70;99.90;;;;;;5040564;28;20850;-48
2022/07/12 07:55:45;;;;;;;2.40;2.30;;;27.30;99.90;;;;;;5045237;28;20123;-46
2022/07/12 07:58:11;;;;;;;2.75;2.55;;;26.90;99.90;;;;;;5047069;28;20095;-46
2022/07/12 08:00:36;;;;;;;4.55;2.60;;;26.80;99.90;;;;;;5046623;28;20040;-45
2022/07/12 08:03:02;;;;;;;2.28;1.92;;;26.70;99.90;;;;;;5046010;28;20073;-46
2022/07/12 08:05:28;;;;;;;2.83;2.45;;;26.50;99.90;;;;;;5045537;28;20041;-45
2022/07/12 08:07:54;;;;;;;2.05;1.92;;;26.30;99.90;;;;;;5046177;28;20121;-47
2022/07/12 08:10:19;;;;;;;2.50;2.30;;;26.10;99.90;;;;;;5044190;28;20076;-45
2022/07/12 08:12:45;;;;;;;2.40;2.30;;;25.70;99.90;;;;;;5045881;28;20131;-47
2022/07/12 08:15:10;;;;;;;3.22;2.25;;;25.70;99.90;;;;;;5044776;28;20099;-45
2022/07/12 08:17:37;;;;;;;2.10;2.00;;;25.50;99.90;;;;;;5045344;28;20859;-46
2022/07/12 08:20:06;;;;;;;2.67;2.47;;;25.30;99.90;;;;;;5066120;28;20446;-46
2022/07/12 08:22:32;;;;;;;2.75;2.55;;;25.20;99.90;;;;;;5050759;28;20153;-47
2022/07/12 08:24:57;;;;;;;3.22;2.25;;;25.10;99.90;;;;;;5044728;28;20076;-49
2022/07/12 08:27:23;;;;;;;2.50;2.30;;;25.20;99.90;;;;;;5042023;28;20491;-49
2022/07/12 08:29:49;;;;;;;2.88;2.70;;;25.40;99.90;;;;;;5049616;28;21502;-47
2022/07/12 08:32:15;;;;;;;2.47;2.38;;;25.40;99.90;;;;;;5048582;28;20051;-49
2022/07/12 08:34:41;;;;;;;2.33;1.73;;;25.20;99.90;;;;;;5042479;28;20041;-47
2022/07/12 08:37:07;;;;;;;1.85;1.70;;;25.40;99.90;;;;;;5046947;28;20475;-49
2022/07/12 08:39:33;;;;;;;2.17;1.90;;;25.40;99.90;;;;;;5040568;28;20037;-48
2022/07/12 08:41:58;;;;;;;4.28;2.47;;;25.70;99.90;;;;;;5045499;28;20040;-46
2022/07/12 08:44:24;;;;;;;3.35;2.45;;;25.70;99.90;;;;;;5047517;28;20487;-48
2022/07/12 08:46:49;;;;;;;2.50;2.38;;;25.90;99.90;;;;;;5043040;28;20443;-45
2022/07/12 08:49:15;;;;;;;2.80;2.60;;;26.00;99.90;;;;;;5031682;28;20050;-50
2022/07/12 08:51:41;;;;;;;2.20;2.00;;;26.10;99.90;;;;;;5031557;28;20038;-45
2022/07/12 08:54:08;;;;;;;2.22;1.40;;;26.00;99.90;;;;;;5038169;28;20059;-47
2022/07/12 08:56:39;;;;;;;1.70;1.50;;;26.10;99.90;;;;;;5050703;28;20052;-47
2022/07/12 08:59:14;;;;;;;1.88;1.60;;;26.20;99.90;;;;;;5050717;28;20533;-48
2022/07/12 09:01:50;;;;;;;2.03;1.88;;;26.30;99.90;;;;;;5044612;28;20136;-46
2022/07/12 09:04:25;;;;;;;2.30;2.03;;;26.30;99.90;;;;;;5031800;28;20373;-48
2022/07/12 09:06:51;;;;;;;2.10;2.00;;;26.30;99.90;;;;;;5031738;28;20049;-46
2022/07/12 09:09:31;;;;;;;3.10;2.20;;;26.30;99.90;;;;;;5031841;28;20506;-47
2022/07/12 09:11:57;;;;;;;2.67;2.47;;;26.30;99.90;;;;;;5037861;28;20110;-48
2022/07/12 09:14:23;;;;;;;3.60;2.50;;;26.40;99.90;;;;;;5049807;28;20049;-49
2022/07/12 09:16:58;;;;;;;2.55;2.30;;;26.50;99.90;;;;;;5041201;28;20041;-47
2022/07/12 09:19:23;;;;;;;1.75;1.65;;;26.60;99.90;;;;;;5031631;28;20099;-48
2022/07/12 09:21:54;;;;;;;1.90;1.80;;;26.60;99.90;;;;;;5031648;28;20041;-46
2022/07/12 09:24:23;;;;;;;6.60;1.60;;;26.60;99.90;;;;;;5033784;28;20109;-47
2022/07/12 09:26:53;;;;;;;2.08;1.67;;;26.80;99.90;;;;;;5042992;28;20086;-47
2022/07/12 09:29:20;;;;;;;3.00;1.27;;;26.70;99.90;;;;;;5054609;28;20044;-50
2022/07/12 09:37:20;;;;;;;2.15;2.05;;;26.70;99.90;;;;;;5055295;28;20056;-46
2022/07/12 09:39:47;;;;;;;3.13;2.30;;;26.90;99.90;;;;;;5053285;28;20085;-45
2022/07/12 09:42:13;;;;;;;2.85;2.22;;;26.90;99.90;;;;;;5049447;28;20295;-51
2022/07/12 09:44:40;;;;;;;2.55;1.83;;;27.00;99.90;;;;;;5048245;28;20037;-50
2022/07/12 09:47:15;;;;;;;2.00;1.50;;;26.90;99.90;;;;;;5053352;28;20094;-46
2022/07/12 09:49:42;;;;;;;1.70;1.60;;;27.10;99.90;;;;;;5053259;28;20045;-50
2022/07/12 09:52:21;;;;;;;2.42;2.33;;;27.20;99.90;;;;;;5054726;28;20140;-48
2022/07/12 09:54:50;;;;;;;2.47;1.92;;;27.50;99.90;;;;;;5052991;28;20052;-46
2022/07/12 09:57:26;;;;;;;1.77;1.23;;;27.60;99.90;;;;;;5054528;28;20521;-45
2022/07/12 09:59:52;;;;;;;1.30;1.20;;;27.60;99.90;;;;;;5054773;28;20530;-47
2022/07/12 10:02:20;;;;;;;2.70;1.50;;;27.40;99.90;;;;;;5053787;28;20064;-45
2022/07/12 10:04:47;;;;;;;1.60;1.50;;;27.30;99.90;;;;;;5053438;28;20049;-45
2022/07/12 10:07:13;;;;;;;1.42;1.30;;;27.30;99.90;;;;;;5050711;28;20120;-45
2022/07/12 10:09:41;;;;;;;2.47;1.25;;;27.40;99.90;;;;;;5049696;28;20052;-45
2022/07/12 10:12:08;;;;;;;1.38;1.10;;;27.50;99.90;;;;;;5052520;28;20040;-49
2022/07/12 10:14:33;;;;;;;;;;;27.60;99.90;;;;;;5052957;28;20040;-49
2022/07/12 10:16:59;;;;;;;1.17;1.07;;;27.60;99.90;;;;;;5051339;28;20033;-49
2022/07/12 10:19:34;;;;;;;1.33;1.23;;;27.50;99.90;;;;;;5051302;28;20041;-49
2022/07/12 10:22:00;;;;;;;2.65;1.33;;;27.60;99.90;;;;;;5051015;28;20041;-47
2022/07/12 10:24:32;;;;;;;1.60;1.50;;;27.50;99.90;;;;;;5053606;28;20063;-48
2022/07/12 10:26:59;;;;;;;1.90;1.70;;;27.70;99.90;;;;;;5044699;28;20299;-47
2022/07/12 10:29:25;;;;;;;1.75;1.58;;;28.00;99.90;;;;;;5052128;28;20041;-49
2022/07/12 10:31:52;;;;;;;1.50;1.40;;;28.00;99.90;;;;;;5044628;28;20395;-47
2022/07/12 10:34:22;;;;;;;1.85;1.50;;;27.90;99.90;;;;;;5047323;28;20041;-45
2022/07/12 10:36:54;;;;;;;2.88;1.60;;;27.90;99.90;;;;;;5051250;28;20033;-46
2022/07/12 10:39:21;;;;;;;1.20;1.20;;;27.90;99.90;;;;;;5050182;28;20389;-46
2022/07/12 10:42:05;;;;;;;;;;;27.90;99.90;;;;;;5054268;28;20048;-47
2022/07/12 10:44:45;;;;;;;2.28;0.80;;;27.90;99.90;;;;;;5034426;28;20043;-51
2022/07/12 10:47:15;;;;;;;1.05;0.93;;;28.00;99.90;;;;;;5041782;28;20041;-49
2022/07/12 10:49:54;;;;;;;1.60;0.70;;;27.90;99.70;;;;;;5050305;28;20495;-50
2022/07/12 10:52:25;;;;;;;2.13;0.80;;;28.00;99.90;;;;;;5047660;28;20048;-50
2022/07/12 10:54:56;;;;;;;1.23;0.73;;;28.20;99.90;;;;;;5051028;28;20115;-47
2022/07/12 10:57:43;;;;;;;2.25;0.60;;;28.30;99.90;;;;;;5052199;28;20556;-48
2022/07/12 11:00:25;;;;;;;0.50;0.50;;;28.50;99.90;;;;;;5050059;28;20136;-50
2022/07/12 11:02:51;;;;;;;0.65;0.30;;;28.60;99.40;;;;;;5063825;28;20127;-50
2022/07/12 11:05:26;;;;;;;0.50;0.30;;;28.60;97.40;;;;;;5052636;28;20045;-48
2022/07/12 11:07:54;;;;;;;0.38;0.38;;;28.90;98.40;;;;;;5050471;28;20041;-48
2022/07/12 11:10:20;;;;;;;1.33;0.70;;;28.80;97.30;;;;;;5040262;28;20508;-49
2022/07/12 11:12:45;;;;;;;0.47;0.40;;;28.70;97.90;;;;;;5033090;28;20038;-50
2022/07/12 11:15:13;;;;;;;1.63;0.50;;;28.80;98.50;;;;;;5051507;28;20140;-49
2022/07/12 11:17:38;;;;;;;0.60;0.60;;;28.90;97.50;;;;;;5051635;28;20095;-45
2022/07/12 11:20:12;;;;;;;0.93;0.80;;;28.80;97.70;;;;;;5042960;28;20036;-51
2022/07/12 11:22:40;;;;;;;0.70;0.70;;;28.90;97.30;;;;;;5041521;28;20098;-45
2022/07/12 11:25:08;;;;;;;2.00;0.60;;;28.70;98.50;;;;;;5051570;28;20490;-47
2022/07/12 11:27:35;;;;;;;0.50;0.50;;;28.90;97.80;;;;;;5033239;28;20041;-47
2022/07/12 11:30:01;;;;;;;1.53;0.77;;;29.10;98.10;;;;;;5034094;28;20445;-47
2022/07/12 11:32:41;;;;;;;0.90;0.70;;;29.10;98.20;;;;;;5052573;28;20456;-50
2022/07/12 11:35:25;;;;;;;0.60;0.60;;;29.30;97.80;;;;;;5052689;28;20118;-50
2022/07/12 11:37:55;;;;;;;0.77;0.60;;;29.50;97.20;;;;;;5050312;28;20363;-49
2022/07/12 11:40:26;;;;;;;0.65;0.40;;;29.20;97.40;;;;;;5049243;28;20135;-46
2022/07/12 11:42:58;;;;;;;0.55;0.40;;;29.40;96.20;;;;;;5049429;28;20106;-48
2022/07/12 11:45:28;;;;;;;0.80;0.63;;;29.60;96.20;;;;;;5051386;28;20037;-49
2022/07/12 11:47:54;;;;;;;2.70;0.70;;;29.80;95.90;;;;;;5050736;28;20407;-48
2022/07/12 11:50:20;;;;;;;1.30;0.77;;;29.60;96.20;;;;;;5051246;28;20120;-47
2022/07/12 11:52:46;;;;;;;2.08;1.10;;;29.50;96.70;;;;;;5051162;28;20136;-46
2022/07/12 11:55:12;;;;;;;4.15;1.00;;;29.50;96.10;;;;;;5049747;28;20498;-49
2022/07/12 11:57:37;;;;;;;0.85;0.73;;;29.50;96.50;;;;;;5052463;28;20079;-51
2022/07/12 12:00:21;;;;;;;0.90;0.90;;;29.60;95.80;;;;;;5051010;28;20033;-47
2022/07/12 12:02:51;;;;;;;1.27;0.70;;;29.30;95.30;;;;;;5037444;28;20045;-47
2022/07/12 12:05:17;;;;;;;1.88;0.90;;;29.40;96.50;;;;;;5050753;28;20045;-48
2022/07/12 12:07:43;;;;;;;0.80;0.60;;;29.20;94.80;;;;;;5048715;28;20040;-49
2022/07/12 12:10:17;;;;;;;1.85;0.68;;;29.40;94.60;;;;;;5046588;28;20364;-47
2022/07/12 12:12:51;;;;;;;0.50;0.50;;;29.50;95.70;;;;;;5051526;28;20080;-46
2022/07/12 12:15:29;;;;;;;2.05;0.60;;;29.70;96.00;;;;;;5051913;28;20376;-46
2022/07/12 12:18:03;;;;;;;1.60;0.60;;;29.60;95.00;;;;;;5052475;28;20041;-45
2022/07/12 12:20:31;;;;;;;0.60;0.60;;;29.80;95.10;;;;;;5050046;28;20033;-47
2022/07/12 12:22:58;;;;;;;1.48;0.50;;;29.80;94.10;;;;;;5047100;28;20080;-46
2022/07/12 12:25:26;;;;;;;0.63;0.60;;;29.70;94.60;;;;;;5047569;28;20120;-46
2022/07/12 12:28:01;;;;;;;1.85;0.60;;;29.50;93.70;;;;;;5038916;28;20046;-46
2022/07/12 12:30:28;;;;;;;2.15;0.85;;;29.70;94.90;;;;;;5063273;28;20052;-45
2022/07/12 12:32:59;;;;;;;0.68;0.68;;;29.70;94.90;;;;;;5041884;28;20041;-47
2022/07/12 12:35:38;;;;;;;2.13;2.00;;;29.70;94.60;;;;;;5036696;28;20041;-47
2022/07/12 12:38:14;;;;;;;0.68;0.60;;;29.80;95.70;;;;;;5050834;28;20133;-46
2022/07/12 12:40:40;;;;;;;1.50;0.85;;;30.00;94.30;;;;;;5050566;28;20518;-46
2022/07/12 12:43:10;;;;;;;2.33;1.30;;;30.00;93.90;;;;;;5051310;28;20441;-45
2022/07/12 12:45:48;;;;;;;0.88;0.60;;;29.90;94.50;;;;;;5050319;28;20049;-46
2022/07/12 12:48:22;;;;;;;0.77;0.45;;;30.00;93.70;;;;;;5047846;28;20112;-46
2022/07/12 12:50:50;;;;;;;0.52;0.50;;;30.20;94.80;;;;;;5050153;28;20117;-46
2022/07/12 12:53:22;;;;;;;0.63;0.50;;;30.20;94.50;;;;;;5045782;28;20060;-46
2022/07/12 12:55:52;;;;;;;0.50;0.40;;;30.10;93.60;;;;;;5049796;28;20128;-46
2022/07/12 12:58:20;;;;;;;0.40;0.40;;;30.20;94.10;;;;;;5052027;28;20127;-47
2022/07/12 13:00:47;;;;;;;0.93;0.50;;;30.30;93.80;;;;;;5050007;28;20080;-47
2022/07/12 13:03:15;;;;;;;1.75;0.60;;;30.00;93.70;;;;;;5049624;28;20047;-45
2022/07/12 13:05:41;;;;;;;1.20;0.65;;;30.00;93.10;;;;;;5045123;28;20403;-47